Terminal Aerodrome Forecast
Issued by NWS Corpus Christi, TX

Home | Current Version | Previous Version | Text Only | Print | Product List | Glossary On
Versions: 1 2 3 4 5 6 7 8 9 10 11 12 13 14 15 16 17 18 19 20 21
000
FTUS44 KCRP 031355 AAA
TAFCRP
TAF AMD
KCRP 031355Z 0314/0412 13006KT P6SM VCSH SCT015
      TEMPO 0314/0315 5SM BR BKN015
     FM031500 15012G18KT P6SM VCSH BKN035
      TEMPO 0315/0317 BKN030
     FM032000 15018G25KT P6SM SCT040 BKN250
     FM040000 15011KT P6SM SCT020=

USA.gov is the U.S. government's official web portal to all federal, state and local government web resources and services.